createdAt,value
2018-04-22T00:01:31.746Z,101174.70
2018-04-22T00:03:59.157Z,101177.64
2018-04-22T00:06:26.552Z,101178.31
2018-04-22T00:08:53.949Z,101174.52
2018-04-22T00:11:21.353Z,101174.44
2018-04-22T00:13:48.774Z,101169.97
2018-04-22T00:16:16.188Z,101164.69
2018-04-22T00:18:43.638Z,101157.47
2018-04-22T00:21:11.022Z,101154.53
2018-04-22T00:23:38.431Z,101152.97
2018-04-22T00:26:05.813Z,101144.49
2018-04-22T00:28:33.206Z,101143.77
2018-04-22T00:31:00.593Z,101130.69
2018-04-22T00:33:27.984Z,101136.60
2018-04-22T00:35:55.404Z,101135.52
2018-04-22T00:38:22.873Z,101138.82
2018-04-22T00:40:50.340Z,101138.37
2018-04-22T00:43:17.773Z,101130.39
2018-04-22T00:45:45.229Z,101130.56
2018-04-22T00:48:12.623Z,101129.30
2018-04-22T00:50:40.002Z,101123.06
2018-04-22T00:53:07.397Z,101120.90
2018-04-22T00:55:35.719Z,101122.35
2018-04-22T00:58:03.125Z,101122.13
2018-04-22T01:00:30.517Z,101118.64
2018-04-22T01:02:57.908Z,101115.70
2018-04-22T01:05:25.393Z,101120.80
2018-04-22T01:07:52.848Z,101119.01
2018-04-22T01:10:20.314Z,101120.02
2018-04-22T01:12:47.769Z,101118.80
2018-04-22T01:15:15.245Z,101116.34
2018-04-22T01:17:42.609Z,101115.33
2018-04-22T01:20:10.013Z,101115.81
2018-04-22T01:22:37.488Z,101113.34
2018-04-22T01:25:05.832Z,101118.73
2018-04-22T01:27:33.221Z,101117.02
2018-04-22T01:30:00.702Z,101112.67
2018-04-22T01:32:28.090Z,101106.96
2018-04-22T01:34:55.500Z,101108.05
2018-04-22T01:37:22.892Z,101104.70
2018-04-22T01:39:50.277Z,101099.38
2018-04-22T01:42:17.662Z,101102.95
2018-04-22T01:44:45.122Z,101101.87
2018-04-22T01:47:12.512Z,101097.66
2018-04-22T01:49:39.898Z,101099.28
2018-04-22T01:52:07.353Z,101096.12
2018-04-22T01:54:34.745Z,101098.12
2018-04-22T01:57:02.132Z,101096.61
2018-04-22T01:59:30.209Z,101089.91
2018-04-22T02:01:57.693Z,101089.94
2018-04-22T02:04:25.081Z,101083.34
2018-04-22T02:06:52.469Z,101085.88
2018-04-22T02:09:19.868Z,101091.20
2018-04-22T02:11:47.254Z,101086.81
2018-04-22T02:14:14.665Z,101092.56
2018-04-22T02:16:42.055Z,101089.58
2018-04-22T02:19:09.478Z,101082.75
2018-04-22T02:21:36.937Z,101083.10
2018-04-22T02:24:04.354Z,101081.16
2018-04-22T02:26:31.745Z,101071.13
2018-04-22T02:28:59.139Z,101074.09
2018-04-22T02:31:26.616Z,101064.20
2018-04-22T02:33:54.082Z,101065.53
2018-04-22T02:36:21.533Z,101054.19
2018-04-22T02:38:48.924Z,101049.45
2018-04-22T02:41:16.387Z,101038.23
2018-04-22T02:43:43.765Z,101047.05
2018-04-22T02:46:11.348Z,101041.29
2018-04-22T02:48:38.755Z,101033.02
2018-04-22T02:51:06.137Z,101026.36
2018-04-22T02:53:33.567Z,101027.36
2018-04-22T02:56:00.943Z,101023.65
2018-04-22T02:58:28.365Z,101019.11
2018-04-22T03:00:55.756Z,101009.59
2018-04-22T03:03:23.189Z,101006.09
2018-04-22T03:05:50.564Z,101005.73
2018-04-22T03:08:17.982Z,101006.41
2018-04-22T03:10:45.447Z,101000.52
2018-04-22T03:13:12.913Z,101017.21
2018-04-22T03:15:40.349Z,101017.59
2018-04-22T03:18:07.740Z,101005.80
2018-04-22T03:20:35.148Z,101001.33
2018-04-22T03:23:02.617Z,101000.28
2018-04-22T03:25:29.996Z,100990.69
2018-04-22T03:27:57.394Z,100990.84
2018-04-22T03:30:24.778Z,100988.80
2018-04-22T03:32:52.177Z,100988.04
2018-04-22T03:35:19.585Z,100988.80
2018-04-22T03:37:46.990Z,100983.44
2018-04-22T03:40:14.398Z,100983.75
2018-04-22T03:42:41.820Z,100983.25
2018-04-22T03:45:09.196Z,100970.61
2018-04-22T03:47:36.681Z,100976.47
2018-04-22T03:50:04.059Z,100973.20
2018-04-22T03:52:31.445Z,100974.47
2018-04-22T03:54:58.841Z,100970.69
2018-04-22T03:57:26.229Z,100967.64
2018-04-22T03:59:53.625Z,100967.41
2018-04-22T04:02:21.001Z,100962.40
2018-04-22T04:04:48.390Z,100960.97
2018-04-22T04:07:15.772Z,100970.61
2018-04-22T04:09:43.168Z,100961.03
2018-04-22T04:12:10.657Z,100959.98
2018-04-22T04:14:38.101Z,100954.66
2018-04-22T04:17:05.484Z,100961.98
2018-04-22T04:22:45.665Z,100965.03
2018-04-22T04:28:12.185Z,100964.66
2018-04-22T04:30:39.604Z,100963.39
2018-04-22T04:33:06.977Z,100957.80
2018-04-22T04:35:34.373Z,100965.91
2018-04-22T04:38:01.806Z,100966.58
2018-04-22T04:40:29.256Z,100970.60
2018-04-22T04:42:56.644Z,100965.33
2018-04-22T04:45:24.037Z,100973.56
2018-04-22T04:47:51.421Z,100978.84
2018-04-22T04:50:19.521Z,100971.74
2018-04-22T04:52:46.907Z,100975.33
2018-04-22T04:55:14.304Z,100966.30
2018-04-22T04:57:41.752Z,100965.38
2018-04-22T05:00:09.144Z,100966.17
2018-04-22T05:02:36.538Z,100964.30
2018-04-22T05:05:04.030Z,100959.59
2018-04-22T05:07:31.473Z,100954.51
2018-04-22T05:09:58.837Z,100961.20
2018-04-22T05:12:26.220Z,100952.53
2018-04-22T05:14:53.617Z,100953.48
2018-04-22T05:17:21.102Z,100950.81
2018-04-22T05:19:48.557Z,100939.35
2018-04-22T05:22:15.945Z,100944.89
2018-04-22T05:24:43.361Z,100941.94
2018-04-22T05:27:10.830Z,100939.05
2018-04-22T05:29:38.230Z,100939.36
2018-04-22T05:32:05.632Z,100941.47
2018-04-22T05:34:33.081Z,100938.11
2018-04-22T05:37:00.464Z,100943.87
2018-04-22T05:39:27.901Z,100947.91
2018-04-22T05:41:55.298Z,100946.52
2018-04-22T05:44:22.689Z,100944.41
2018-04-22T05:46:50.073Z,100934.20
2018-04-22T05:49:17.528Z,100931.64
2018-04-22T05:51:44.926Z,100930.76
2018-04-22T05:54:12.309Z,100920.96
2018-04-22T05:56:39.793Z,100925.83
2018-04-22T05:59:07.248Z,100914.63
2018-04-22T06:01:34.700Z,100913.50
2018-04-22T06:04:02.165Z,100904.66
2018-04-22T06:06:29.557Z,100909.84
2018-04-22T06:08:56.974Z,100904.92
2018-04-22T06:11:24.368Z,100906.34
2018-04-22T06:13:51.763Z,100908.53
2018-04-22T06:16:19.161Z,100904.53
2018-04-22T06:18:46.553Z,100907.49
2018-04-22T06:21:14.049Z,100896.43
2018-04-22T06:23:41.443Z,100889.64
2018-04-22T06:26:08.861Z,100887.66
2018-04-22T06:28:36.256Z,100895.27
2018-04-22T06:31:03.676Z,100883.16
2018-04-22T06:33:31.071Z,100885.23
2018-04-22T06:35:58.484Z,100877.16
2018-04-22T06:38:25.873Z,100880.69
2018-04-22T06:40:53.340Z,100886.05
2018-04-22T06:43:20.723Z,100877.97
2018-04-22T06:45:48.114Z,100882.62
2018-04-22T06:48:15.564Z,100886.97
2018-04-22T06:50:43.022Z,100878.16
2018-04-22T06:53:10.409Z,100877.68
2018-04-22T06:55:37.801Z,100873.11
2018-04-22T06:58:05.292Z,100870.75
2018-04-22T07:00:32.745Z,100870.70
2018-04-22T07:03:00.135Z,100868.91
2018-04-22T07:05:27.572Z,100868.75
2018-04-22T07:07:54.941Z,100868.05
2018-04-22T07:10:22.341Z,100867.45
2018-04-22T07:12:49.824Z,100870.66
2018-04-22T07:15:17.209Z,100867.67
2018-04-22T07:17:44.612Z,100860.83
2018-04-22T07:20:12.084Z,100860.17
2018-04-22T07:22:39.480Z,100865.42
2018-04-22T07:25:06.898Z,100863.20
2018-04-22T07:27:34.310Z,100859.53
2018-04-22T07:30:01.703Z,100854.83
2018-04-22T07:32:29.168Z,100860.53
2018-04-22T07:34:56.556Z,100863.38
2018-04-22T07:37:23.948Z,100865.88
2018-04-22T07:39:51.337Z,100865.75
2018-04-22T07:42:18.803Z,100855.38
2018-04-22T07:44:46.187Z,100860.09
2018-04-22T07:47:13.576Z,100855.58
2018-04-22T07:49:40.967Z,100857.08
2018-04-22T07:52:08.360Z,100855.20
2018-04-22T07:54:35.756Z,100848.68
2018-04-22T07:57:03.175Z,100843.09
2018-04-22T07:59:30.552Z,100842.48
2018-04-22T08:01:58.041Z,100836.75
2018-04-22T08:04:25.442Z,100826.87
2018-04-22T08:06:52.821Z,100834.99
2018-04-22T08:09:20.211Z,100818.95
2018-04-22T08:11:47.617Z,100817.99
2018-04-22T08:14:15.001Z,100816.87
2018-04-22T08:16:42.397Z,100816.17
2018-04-22T08:19:09.786Z,100812.95
2018-04-22T08:21:37.172Z,100812.05
2018-04-22T08:24:04.563Z,100817.53
2018-04-22T08:26:31.949Z,100810.75
2018-04-22T08:28:59.348Z,100806.16
2018-04-22T08:31:26.813Z,100803.31
2018-04-22T08:33:54.311Z,100795.93
2018-04-22T08:36:21.729Z,100801.84
2018-04-22T08:38:49.109Z,100802.20
2018-04-22T08:41:16.532Z,100802.09
2018-04-22T08:43:43.918Z,100798.14
2018-04-22T08:46:11.322Z,100797.03
2018-04-22T08:48:38.705Z,100791.16
2018-04-22T08:51:06.092Z,100778.91
2018-04-22T08:53:33.497Z,100775.77
2018-04-22T08:56:00.970Z,100767.48
2018-04-22T08:58:28.428Z,100769.98
2018-04-22T09:00:55.825Z,100770.23
2018-04-22T09:03:23.245Z,100784.88
2018-04-22T09:05:50.628Z,100779.00
2018-04-22T09:08:18.057Z,100762.30
2018-04-22T09:10:45.758Z,100757.57
2018-04-22T09:13:13.192Z,100761.91
2018-04-22T09:15:40.580Z,100758.17
2018-04-22T09:18:07.981Z,100757.34
2018-04-22T09:20:35.458Z,100749.88
2018-04-22T09:23:02.898Z,100740.51
2018-04-22T09:25:30.292Z,100739.36
2018-04-22T09:27:57.700Z,100738.48
2018-04-22T09:30:25.084Z,100745.13
2018-04-22T09:32:52.543Z,100745.34
2018-04-22T09:35:19.930Z,100739.56
2018-04-22T09:37:47.330Z,100731.33
2018-04-22T09:40:14.713Z,100730.89
2018-04-22T09:42:42.129Z,100727.00
2018-04-22T09:45:09.564Z,100728.41
2018-04-22T09:47:37.069Z,100727.64
2018-04-22T09:50:04.461Z,100724.49
2018-04-22T09:52:31.853Z,100720.56
2018-04-22T09:54:59.237Z,100712.52
2018-04-22T09:57:26.689Z,100706.98
2018-04-22T09:59:54.077Z,100710.79
2018-04-22T10:02:27.117Z,100689.25
2018-04-22T10:04:54.557Z,100687.11
2018-04-22T10:07:21.897Z,100694.69
2018-04-22T10:09:49.284Z,100699.13
2018-04-22T10:12:16.685Z,100692.09
2018-04-22T10:14:44.078Z,100685.86
2018-04-22T10:17:11.568Z,100669.09
2018-04-22T10:19:38.957Z,100661.95
2018-04-22T10:22:06.385Z,100663.58
2018-04-22T10:24:33.844Z,100666.23
2018-04-22T10:27:01.238Z,100659.92
2018-04-22T10:29:28.623Z,100653.23
2018-04-22T10:31:56.130Z,100643.73
2018-04-22T10:34:23.498Z,100641.82
2018-04-22T10:36:50.892Z,100629.72
2018-04-22T10:39:19.185Z,100628.91
2018-04-22T10:41:46.661Z,100627.06
2018-04-22T10:44:14.045Z,100628.58
2018-04-22T10:46:41.495Z,100614.11
2018-04-22T10:49:08.936Z,100608.97
2018-04-22T10:51:36.344Z,100611.09
2018-04-22T10:54:03.748Z,100594.05
2018-04-22T10:56:31.136Z,100597.47
2018-04-22T10:58:58.549Z,100596.84
2018-04-22T11:01:25.945Z,100592.20
2018-04-22T11:03:53.369Z,100596.19
2018-04-22T11:06:20.831Z,100590.70
2018-04-22T11:08:48.225Z,100582.09
2018-04-22T11:11:15.636Z,100580.61
2018-04-22T11:13:43.093Z,100581.52
2018-04-22T11:16:10.479Z,100578.69
2018-04-22T11:18:37.861Z,100570.61
2018-04-22T11:21:05.256Z,100559.20
2018-04-22T11:23:32.713Z,100558.98
2018-04-22T11:26:00.105Z,100554.84
2018-04-22T11:28:27.505Z,100554.99
2018-04-22T11:30:54.897Z,100549.98
2018-04-22T11:33:22.297Z,100546.56
2018-04-22T11:35:49.681Z,100555.22
2018-04-22T11:38:17.084Z,100547.48
2018-04-22T11:40:44.478Z,100538.52
2018-04-22T11:43:11.959Z,100537.55
2018-04-22T11:45:39.364Z,100539.95
2018-04-22T11:48:06.756Z,100526.17
2018-04-22T11:50:34.246Z,100534.21
2018-04-22T11:53:01.652Z,100530.45
2018-04-22T11:55:29.052Z,100520.22
2018-04-22T11:57:56.449Z,100516.31
2018-04-22T12:00:23.885Z,100514.29
2018-04-22T12:02:51.322Z,100510.95
2018-04-22T12:05:18.900Z,100508.02
2018-04-22T12:07:46.303Z,100505.92
2018-04-22T12:10:13.802Z,100496.94
2018-04-22T12:12:41.189Z,100500.20
2018-04-22T12:15:08.585Z,100496.61
2018-04-22T12:17:36.073Z,100495.77
2018-04-22T12:20:03.460Z,100488.23
2018-04-22T12:22:30.884Z,100483.94
2018-04-22T12:24:58.271Z,100479.05
2018-04-22T12:27:25.693Z,100484.33
2018-04-22T12:29:53.102Z,100472.58
2018-04-22T12:32:20.572Z,100464.34
2018-04-22T12:34:47.976Z,100469.27
2018-04-22T12:37:15.364Z,100460.95
2018-04-22T12:39:42.769Z,100459.72
2018-04-22T12:42:10.236Z,100445.70
2018-04-22T12:44:37.633Z,100442.88
2018-04-22T12:47:05.053Z,100451.13
2018-04-22T12:49:32.473Z,100442.69
2018-04-22T12:51:59.872Z,100441.23
2018-04-22T12:54:27.269Z,100436.30
2018-04-22T12:56:54.948Z,100431.81
2018-04-22T12:59:22.445Z,100432.55
2018-04-22T13:01:49.798Z,100433.17
2018-04-22T13:04:17.233Z,100426.29
2018-04-22T13:06:44.670Z,100428.79
2018-04-22T13:09:12.073Z,100428.00
2018-04-22T13:11:39.481Z,100427.11
2018-04-22T13:14:06.990Z,100409.13
2018-04-22T13:16:34.329Z,100410.64
2018-04-22T13:19:01.727Z,100401.70
2018-04-22T13:21:29.109Z,100396.35
2018-04-22T13:23:56.670Z,100398.95
2018-04-22T13:26:24.057Z,100393.98
2018-04-22T13:28:51.454Z,100389.22
2018-04-22T13:31:18.936Z,100385.93
2018-04-22T13:33:46.413Z,100384.61
2018-04-22T13:36:13.845Z,100378.30
2018-04-22T13:38:41.309Z,100382.58
2018-04-22T13:41:08.721Z,100378.01
2018-04-22T13:43:36.203Z,100380.73
2018-04-22T13:46:03.633Z,100376.01
2018-04-22T13:48:31.046Z,100366.31
2018-04-22T13:50:58.497Z,100364.98
2018-04-22T13:53:25.901Z,100356.11
2018-04-22T13:55:53.301Z,100353.70
2018-04-22T13:58:20.776Z,100346.83
2018-04-22T14:00:48.173Z,100345.80
2018-04-22T14:03:15.588Z,100345.68
2018-04-22T14:05:42.978Z,100336.62
2018-04-22T14:08:10.369Z,100340.70
2018-04-22T14:10:37.853Z,100330.58
2018-04-22T14:13:05.306Z,100324.91
2018-04-22T14:15:32.762Z,100320.56
2018-04-22T14:18:00.217Z,100316.95
2018-04-22T14:20:27.617Z,100310.45
2018-04-22T14:22:55.137Z,100319.77
2018-04-22T14:25:22.647Z,100307.88
2018-04-22T14:27:49.987Z,100298.31
2018-04-22T14:30:17.383Z,100294.62
2018-04-22T14:32:44.862Z,100279.72
2018-04-22T14:35:12.265Z,100288.91
2018-04-22T14:37:39.658Z,100288.50
2018-04-22T14:40:07.142Z,100285.78
2018-04-22T14:42:34.697Z,100276.48
2018-04-22T14:45:14.117Z,100273.56
2018-04-22T14:47:41.586Z,100274.02
2018-04-22T14:50:08.989Z,100268.66
2018-04-22T14:52:36.383Z,100267.39
2018-04-22T14:55:03.789Z,100268.50
2018-04-22T14:57:31.176Z,100259.80
2018-04-22T14:59:58.677Z,100257.76
2018-04-22T15:02:26.068Z,100255.20
2018-04-22T15:04:53.499Z,100250.27
2018-04-22T15:07:20.892Z,100253.77
2018-04-22T15:09:48.300Z,100249.64
2018-04-22T15:12:15.685Z,100249.15
2018-04-22T15:14:43.081Z,100243.97
2018-04-22T15:17:10.480Z,100245.33
2018-04-22T15:19:37.925Z,100236.52
2018-04-22T15:22:05.321Z,100236.31
2018-04-22T15:24:32.788Z,100234.72
2018-04-22T15:27:00.181Z,100224.90
2018-04-22T15:29:27.582Z,100220.70
2018-04-22T15:31:54.980Z,100217.41
2018-04-22T15:34:22.377Z,100215.95
2018-04-22T15:36:49.769Z,100208.97
2018-04-22T15:39:17.168Z,100205.72
2018-04-22T15:41:44.588Z,100199.92
2018-04-22T15:44:11.986Z,100201.80
2018-04-22T15:46:39.402Z,100199.83
2018-04-22T15:49:06.857Z,100204.48
2018-04-22T15:51:34.253Z,100211.44
2018-04-22T15:54:01.676Z,100206.17
2018-04-22T15:56:29.073Z,100212.06
2018-04-22T15:58:56.525Z,100213.91
2018-04-22T16:01:23.921Z,100213.78
2018-04-22T16:03:51.400Z,100203.63
2018-04-22T16:06:18.864Z,100204.29
2018-04-22T16:08:46.317Z,100207.98
2018-04-22T16:11:13.778Z,100203.63
2018-04-22T16:13:41.238Z,100205.30
2018-04-22T16:16:08.653Z,100199.42
2018-04-22T16:18:36.113Z,100189.25
2018-04-22T16:21:03.517Z,100188.06
2018-04-22T16:23:30.904Z,100185.55
2018-04-22T16:25:58.300Z,100185.30
2018-04-22T16:28:25.689Z,100182.02
2018-04-22T16:30:53.088Z,100193.98
2018-04-22T16:33:20.545Z,100175.47
2018-04-22T16:35:47.957Z,100181.05
2018-04-22T16:38:15.348Z,100170.73
2018-04-22T16:40:42.816Z,100162.69
2018-04-22T16:43:10.209Z,100164.98
2018-04-22T16:45:37.634Z,100155.63
2018-04-22T16:48:05.102Z,100151.73
2018-04-22T16:50:32.594Z,100157.41
2018-04-22T16:52:59.936Z,100144.95
2018-04-22T16:55:27.353Z,100136.42
2018-04-22T16:57:54.740Z,100128.27
2018-04-22T17:00:22.168Z,100123.33
2018-04-22T17:02:49.561Z,100119.02
2018-04-22T17:05:16.980Z,100110.62
2018-04-22T17:07:44.585Z,100102.61
2018-04-22T17:10:12.005Z,100102.14
2018-04-22T17:12:39.456Z,100102.13
2018-04-22T17:15:06.870Z,100089.81
2018-04-22T17:17:34.372Z,100083.72
2018-04-22T17:20:01.786Z,100080.84
2018-04-22T17:22:29.169Z,100083.84
2018-04-22T17:24:56.565Z,100082.38
2018-04-22T17:27:23.957Z,100085.33
2018-04-22T17:29:51.359Z,100086.16
2018-04-22T17:32:18.765Z,100086.67
2018-04-22T17:34:46.269Z,100090.31
2018-04-22T17:37:13.732Z,100093.45
2018-04-22T17:39:41.133Z,100096.59
2018-04-22T17:42:08.528Z,100092.16
2018-04-22T17:44:35.929Z,100097.47
2018-04-22T17:47:03.324Z,100101.05
2018-04-22T17:49:30.740Z,100106.25
2018-04-22T17:51:58.140Z,100114.17
2018-04-22T17:54:25.532Z,100114.28
2018-04-22T17:56:52.933Z,100123.56
2018-04-22T17:59:20.324Z,100129.69
2018-04-22T18:01:47.742Z,100139.59
2018-04-22T18:04:15.134Z,100132.50
2018-04-22T18:06:42.541Z,100132.91
2018-04-22T18:09:09.982Z,100142.39
2018-04-22T18:11:37.387Z,100148.50
2018-04-22T18:14:04.777Z,100147.77
2018-04-22T18:16:32.318Z,100145.19
2018-04-22T18:18:59.822Z,100146.73
2018-04-22T18:21:27.258Z,100140.04
2018-04-22T18:23:54.723Z,100136.58
2018-04-22T18:26:22.180Z,100145.48
2018-04-22T18:28:49.749Z,100152.28
2018-04-22T18:31:17.189Z,100145.50
2018-04-22T18:33:44.580Z,100148.04
2018-04-22T18:36:11.985Z,100139.92
2018-04-22T18:38:39.465Z,100139.95
2018-04-22T18:41:06.869Z,100137.02
2018-04-22T18:43:34.382Z,100129.93
2018-04-22T18:46:01.801Z,100121.19
2018-04-22T18:48:29.198Z,100119.55
2018-04-22T18:50:56.605Z,100121.18
2018-04-22T18:53:24.002Z,100128.92
2018-04-22T18:55:51.429Z,100126.52
2018-04-22T18:58:18.877Z,100131.56
2018-04-22T19:00:46.349Z,100131.97
2018-04-22T19:03:13.845Z,100130.96
2018-04-22T19:05:41.246Z,100124.34
2018-04-22T19:08:08.661Z,100134.95
2018-04-22T19:10:36.078Z,100129.78
2018-04-22T19:13:03.473Z,100140.84
2018-04-22T19:15:30.878Z,100141.37
2018-04-22T19:17:58.276Z,100152.87
2018-04-22T19:20:25.690Z,100156.02
2018-04-22T19:22:53.089Z,100157.16
2018-04-22T19:25:20.623Z,100158.41
2018-04-22T19:27:48.101Z,100164.88
2018-04-22T19:30:15.505Z,100175.95
2018-04-22T19:32:43.558Z,100186.59
2018-04-22T19:35:10.974Z,100192.83
2018-04-22T19:37:38.367Z,100189.69
2018-04-22T19:40:05.761Z,100199.05
2018-04-22T19:42:33.148Z,100200.05
2018-04-22T19:45:00.597Z,100198.46
2018-04-22T19:47:28.026Z,100194.86
2018-04-22T19:49:55.442Z,100190.21
2018-04-22T19:52:22.896Z,100185.31
2018-04-22T19:54:50.281Z,100186.37
2018-04-22T19:57:17.705Z,100187.34
2018-04-22T19:59:45.100Z,100172.30
2018-04-22T20:02:12.520Z,100183.56
2018-04-22T20:04:39.973Z,100185.98
2018-04-22T20:07:07.366Z,100186.39
2018-04-22T20:09:34.803Z,100195.05
2018-04-22T20:12:02.245Z,100190.95
2018-04-22T20:14:29.648Z,100196.28
2018-04-22T20:16:57.060Z,100191.52
2018-04-22T20:19:24.474Z,100195.52
2018-04-22T20:21:51.856Z,100192.44
2018-04-22T20:24:19.245Z,100218.19
2018-04-22T20:26:46.646Z,100277.07
2018-04-22T20:29:14.044Z,100301.00
2018-04-22T20:31:41.500Z,100308.52
2018-04-22T20:34:08.884Z,100292.74
2018-04-22T20:36:36.309Z,100297.36
2018-04-22T20:39:03.694Z,100283.83
2018-04-22T20:41:31.089Z,100287.83
2018-04-22T20:43:58.484Z,100298.55
2018-04-22T20:46:25.891Z,100309.26
2018-04-22T20:48:53.281Z,100313.77
2018-04-22T20:51:20.728Z,100313.56
2018-04-22T20:53:48.097Z,100316.19
2018-04-22T20:56:15.526Z,100317.59
2018-04-22T20:58:42.934Z,100316.39
2018-04-22T21:01:10.337Z,100325.95
2018-04-22T21:03:37.726Z,100333.48
2018-04-22T21:06:05.120Z,100325.41
2018-04-22T21:08:32.513Z,100321.97
2018-04-22T21:11:00.019Z,100314.06
2018-04-22T21:13:27.408Z,100297.59
2018-04-22T21:15:54.827Z,100292.12
2018-04-22T21:18:22.212Z,100286.78
2018-04-22T21:20:49.609Z,100278.72
2018-04-22T21:23:17.013Z,100273.53
2018-04-22T21:25:44.406Z,100265.03
2018-04-22T21:28:11.823Z,100260.72
2018-04-22T21:30:39.217Z,100248.38
2018-04-22T21:33:06.600Z,100231.29
2018-04-22T21:35:33.996Z,100215.96
2018-04-22T21:38:01.474Z,100187.34
2018-04-22T21:40:28.868Z,100159.77
2018-04-22T21:42:56.294Z,100149.94
2018-04-22T21:45:23.754Z,100147.84
2018-04-22T21:47:51.202Z,100146.60
2018-04-22T21:50:18.593Z,100138.61
2018-04-22T21:52:46.078Z,100149.04
2018-04-22T21:55:13.477Z,100154.89
2018-04-22T21:57:40.867Z,100160.38
2018-04-22T22:00:08.359Z,100153.77
2018-04-22T22:02:35.750Z,100187.89
2018-04-22T22:05:03.141Z,100204.31
2018-04-22T22:07:30.571Z,100205.52
2018-04-22T22:09:57.949Z,100210.55
2018-04-22T22:12:25.345Z,100208.20
2018-04-22T22:14:52.728Z,100205.52
2018-04-22T22:17:20.142Z,100212.41
2018-04-22T22:19:47.586Z,100204.62
2018-04-22T22:22:14.991Z,100214.07
2018-04-22T22:24:42.401Z,100212.89
2018-04-22T22:27:09.857Z,100213.13
2018-04-22T22:29:37.245Z,100214.52
2018-04-22T22:32:04.677Z,100215.88
2018-04-22T22:34:32.066Z,100210.25
2018-04-22T22:36:59.465Z,100209.33
2018-04-22T22:39:26.941Z,100216.45
2018-04-22T22:41:54.369Z,100207.66
2018-04-22T22:44:21.765Z,100220.84
2018-04-22T22:46:49.167Z,100229.14
2018-04-22T22:49:16.552Z,100226.83
2018-04-22T22:51:43.976Z,100235.50
2018-04-22T22:54:11.361Z,100254.24
2018-04-22T22:56:38.770Z,100259.15
2018-04-22T22:59:06.196Z,100256.82
2018-04-22T23:01:33.620Z,100257.77
2018-04-22T23:04:01.111Z,100262.66
2018-04-22T23:06:28.509Z,100256.95
2018-04-22T23:08:55.927Z,100258.70
2018-04-22T23:11:23.385Z,100255.69
2018-04-22T23:13:50.778Z,100246.53
2018-04-22T23:16:18.188Z,100235.02
2018-04-22T23:18:45.581Z,100230.70
2018-04-22T23:21:13.009Z,100224.47
2018-04-22T23:23:40.430Z,100214.13
2018-04-22T23:26:07.823Z,100216.09
2018-04-22T23:28:35.257Z,100208.42
2018-04-22T23:31:02.657Z,100202.91
2018-04-22T23:33:30.162Z,100212.06
2018-04-22T23:35:57.549Z,100207.75
2018-04-22T23:38:24.949Z,100204.47
2018-04-22T23:40:52.438Z,100204.09
2018-04-22T23:43:19.843Z,100193.48
2018-04-22T23:45:47.221Z,100198.92
2018-04-22T23:48:14.622Z,100200.99
2018-04-22T23:50:42.018Z,100197.28
2018-04-22T23:53:09.423Z,100191.44
2018-04-22T23:55:36.833Z,100178.05
2018-04-22T23:58:04.258Z,100188.19
